首页
METAR-TAF:

METAR-TAF

机场 :

拉瓜地亞機場

纽约 / 拉瓜地亞, 紐約州, 美国

纬度: 40-46-45N, 经度: 073-52-48W, 海拔: 6米

当前天气观测

该预报发布于1小时和7分钟前的05:51 UTC
风速6节,风向
温度 16°C
湿度 63%
气压 1018 hPa
能見度: 16.1公里
少量云层高于7000英尺
散云层高于25000英尺

METAR: KLGA 190551Z 17006KT 10SM FEW070 SCT250 16/09 A3007 RMK AO2 SLP182 T01560089 10178 20156 53000

时间: 02:58 (06:58 UTC)

预报

该预报发布于1小时和18分钟前的05:40 UTC
预报有效从19日的 06点(UTC)到 20日的 12点(UTC)
风速6节,风向
能見度: 10公里
散云层高于3500英尺
多云层高于6000英尺
多云层高于25000英尺
短暂存在
从 19日的 09点(UTC)到 19日的 13点(UTC)
多云层高于3500英尺
从 19日的 1600点(UTC)
风速13节,风向
能見度: 10公里
散云层高于4000英尺
从 19日的 2100点(UTC)
风速14节,风向,有时为21节阵风
能見度: 10公里
散云层高于3500英尺
多云层高于8000英尺
从 20日的 0000点(UTC)
风速11节,风向
能見度: 10公里
散云层高于1000英尺
散云层高于2000英尺
多云层高于6000英尺
几率 30%
从 20日的 02点(UTC)到 20日的 08点(UTC)
能見度: 8.0公里
小阵雨
从 20日的 0800点(UTC)
风速7节,风向南转西南
能見度: 10公里
散云层高于800英尺
多云层高于4000英尺
附近有阵雨

TAF: KLGA 190540Z 1906/2012 17006KT P6SM SCT035 BKN060 BKN250 TEMPO 1909/1913 BKN035 FM191600 17013KT P6SM SCT040 FM192100 17014G21KT P6SM SCT035 BKN080 FM200000 18011KT P6SM SCT010 SCT020 BKN060 PROB30 2002/2008 5SM -SHRA FM200800 20007KT P6SM VCSH SCT008 BKN040

超过4000个机场的气象观测和天气预报(METAR&TAF报告)。

可查询的气象台以黄色和红色小点在地图上表示。

将鼠标移到小点上方,可查看气象台名称。

然后点击查看天气观测和预报。

如需切换地图:点击带黑十字的绿色按钮放大地图;点击带横线的绿色按钮缩小地图;或者点击绿色箭头查看邻近地区的地图。


METAR-TAF: